createdAt,value
2023-09-13T00:00:16.558Z,10.00
2023-09-13T00:02:43.463Z,8.68
2023-09-13T00:05:10.686Z,8.32
2023-09-13T00:07:37.977Z,7.97
2023-09-13T00:10:06.322Z,7.90
2023-09-13T00:12:33.227Z,8.65
2023-09-13T00:15:02.247Z,10.35
2023-09-13T00:17:29.200Z,8.50
2023-09-13T00:19:57.371Z,8.65
2023-09-13T00:22:25.033Z,8.55
2023-09-13T00:24:52.040Z,7.47
2023-09-13T00:27:19.477Z,9.10
2023-09-13T00:29:46.529Z,8.25
2023-09-13T00:32:15.831Z,8.80
2023-09-13T00:34:42.641Z,9.05
2023-09-13T00:37:09.532Z,9.48
2023-09-13T00:39:39.559Z,8.55
2023-09-13T00:42:06.955Z,8.00
2023-09-13T00:44:34.287Z,9.45
2023-09-13T00:47:07.064Z,8.75
2023-09-13T00:50:06.849Z,10.63
2023-09-13T00:52:47.605Z,8.05
2023-09-13T00:55:25.520Z,9.75
2023-09-13T00:58:03.019Z,9.88
2023-09-13T01:00:31.717Z,8.70
2023-09-13T01:03:03.110Z,8.57
2023-09-13T01:05:32.304Z,8.20
2023-09-13T01:07:59.404Z,7.57
2023-09-13T01:10:28.508Z,9.93
2023-09-13T01:17:06.253Z,8.60
2023-09-13T01:19:56.763Z,8.50
2023-09-13T01:23:06.123Z,8.38
2023-09-13T01:25:55.540Z,8.90
2023-09-13T01:29:09.152Z,9.40
2023-09-13T01:31:38.992Z,12.07
2023-09-13T01:34:07.134Z,9.48
2023-09-13T01:36:40.476Z,10.30
2023-09-13T01:39:07.572Z,7.93
2023-09-13T01:41:38.988Z,10.25
2023-09-13T01:44:08.419Z,10.20
2023-09-13T01:46:37.042Z,8.90
2023-09-13T01:49:06.359Z,10.48
2023-09-13T01:51:34.503Z,8.50
2023-09-13T01:54:01.310Z,9.77
2023-09-13T01:56:28.472Z,10.07
2023-09-13T01:58:55.486Z,10.82
2023-09-13T02:01:24.303Z,9.55
2023-09-13T02:03:51.237Z,10.82
2023-09-13T02:06:19.250Z,8.88
2023-09-13T02:08:48.457Z,9.57
2023-09-13T02:11:15.569Z,11.55
2023-09-13T02:13:44.898Z,10.15
2023-09-13T02:16:13.212Z,10.00
2023-09-13T02:18:41.682Z,12.43
2023-09-13T02:21:11.161Z,10.70
2023-09-13T02:23:38.561Z,12.65
2023-09-13T02:26:05.283Z,13.40
2023-09-13T02:28:32.443Z,10.82
2023-09-13T02:30:59.291Z,10.52
2023-09-13T02:33:26.061Z,15.20
2023-09-13T02:35:54.151Z,12.95
2023-09-13T02:38:23.213Z,11.48
2023-09-13T02:40:51.303Z,11.90
2023-09-13T02:43:18.050Z,11.23
2023-09-13T02:45:45.127Z,11.23
2023-09-13T02:48:11.995Z,11.20
2023-09-13T02:50:41.235Z,10.40
2023-09-13T02:53:09.412Z,8.52
2023-09-13T02:55:37.676Z,10.43
2023-09-13T02:58:07.329Z,9.88
2023-09-13T03:00:34.285Z,9.43
2023-09-13T03:03:01.271Z,8.38
2023-09-13T03:05:28.098Z,9.15
2023-09-13T03:07:57.995Z,9.65
2023-09-13T03:10:27.603Z,8.85
2023-09-13T03:12:54.741Z,11.43
2023-09-13T03:15:21.487Z,12.43
2023-09-13T03:17:48.302Z,11.05
2023-09-13T03:20:16.327Z,9.30
2023-09-13T03:22:43.029Z,11.40
2023-09-13T03:25:10.285Z,11.43
2023-09-13T03:27:38.448Z,11.90
2023-09-13T03:30:06.418Z,17.25
2023-09-13T03:32:33.136Z,15.30
2023-09-13T03:34:59.924Z,14.13
2023-09-13T03:37:26.765Z,17.80
2023-09-13T03:39:53.648Z,16.08
2023-09-13T03:42:21.842Z,17.48
2023-09-13T03:44:49.973Z,16.80
2023-09-13T03:47:16.822Z,18.48
2023-09-13T03:49:43.575Z,18.88
2023-09-13T03:52:10.456Z,18.52
2023-09-13T03:54:37.743Z,21.83
2023-09-13T03:57:04.756Z,19.08
2023-09-13T03:59:31.550Z,21.67
2023-09-13T04:01:59.995Z,19.30
2023-09-13T04:04:27.557Z,18.95
2023-09-13T04:06:54.572Z,19.70
2023-09-13T04:09:22.727Z,20.23
2023-09-13T04:11:49.593Z,22.65
2023-09-13T04:14:16.421Z,24.83
2023-09-13T04:16:43.437Z,20.50
2023-09-13T04:19:11.877Z,23.48
2023-09-13T04:21:38.697Z,24.35
2023-09-13T04:24:14.648Z,25.33
2023-09-13T04:26:41.958Z,23.45
2023-09-13T04:29:08.934Z,22.25
2023-09-13T04:31:35.885Z,22.17
2023-09-13T04:34:04.455Z,25.63
2023-09-13T04:36:32.768Z,24.88
2023-09-13T04:39:01.193Z,24.98
2023-09-13T04:41:28.038Z,26.10
2023-09-13T04:43:54.763Z,28.33
2023-09-13T04:46:21.872Z,31.23
2023-09-13T04:48:48.845Z,26.08
2023-09-13T04:51:15.698Z,27.13
2023-09-13T04:53:44.013Z,28.38
2023-09-13T04:56:10.940Z,27.02
2023-09-13T04:58:39.114Z,23.48
2023-09-13T05:01:06.167Z,27.98
2023-09-13T05:03:33.139Z,27.90
2023-09-13T05:06:18.720Z,26.85
2023-09-13T05:08:51.500Z,24.92
2023-09-13T05:11:18.289Z,25.00
2023-09-13T05:13:48.634Z,24.33
2023-09-13T05:16:15.815Z,25.45
2023-09-13T05:18:42.581Z,25.38
2023-09-13T05:21:09.513Z,27.40
2023-09-13T05:23:36.440Z,23.40
2023-09-13T05:26:04.938Z,27.92
2023-09-13T05:28:35.351Z,26.98
2023-09-13T05:31:02.779Z,25.48
2023-09-13T05:33:29.685Z,27.40
2023-09-13T05:35:56.558Z,22.98
2023-09-13T05:38:23.611Z,26.95
2023-09-13T05:40:50.516Z,25.40
2023-09-13T05:43:19.266Z,26.40
2023-09-13T05:45:46.115Z,24.00
2023-09-13T05:48:13.529Z,26.55
2023-09-13T05:50:40.309Z,26.40
2023-09-13T05:53:07.175Z,31.00
2023-09-13T05:55:34.426Z,25.98
2023-09-13T05:58:01.757Z,27.33
2023-09-13T06:00:30.008Z,29.33
2023-09-13T06:02:57.059Z,26.77
2023-09-13T06:05:23.807Z,25.98
2023-09-13T06:07:51.505Z,25.05
2023-09-13T06:10:18.497Z,27.58
2023-09-13T06:12:46.431Z,22.23
2023-09-13T06:15:13.233Z,26.60
2023-09-13T06:17:41.337Z,26.77
2023-09-13T06:20:08.794Z,25.02
2023-09-13T06:22:35.710Z,23.63
2023-09-13T06:25:11.732Z,26.02
2023-09-13T06:27:38.782Z,25.20
2023-09-13T06:30:09.166Z,23.73
2023-09-13T06:32:41.911Z,28.10
2023-09-13T06:35:15.645Z,27.67
2023-09-13T06:37:46.041Z,25.83
2023-09-13T06:40:13.845Z,21.25
2023-09-13T06:42:58.492Z,27.15
2023-09-13T06:45:28.002Z,24.95
2023-09-13T06:47:55.378Z,24.98
2023-09-13T06:55:29.228Z,22.27
2023-09-13T06:58:00.271Z,18.17
2023-09-13T07:00:40.421Z,23.35
2023-09-13T07:03:17.711Z,22.50
2023-09-13T07:08:13.103Z,11.60
2023-09-13T07:10:39.879Z,8.68
2023-09-13T07:13:06.668Z,5.28
2023-09-13T07:15:33.522Z,3.65
2023-09-13T07:18:01.156Z,2.95
2023-09-13T07:20:28.152Z,1.85
2023-09-13T07:22:56.424Z,1.30
2023-09-13T07:25:23.269Z,2.13
2023-09-13T07:27:50.034Z,0.73
2023-09-13T07:30:17.071Z,0.85
2023-09-13T07:32:43.840Z,1.15
2023-09-13T07:35:10.673Z,1.15
2023-09-13T07:37:37.886Z,0.63
2023-09-13T07:40:07.269Z,1.02
2023-09-13T07:42:34.068Z,3.00
2023-09-13T07:45:00.816Z,1.38
2023-09-13T07:47:29.061Z,1.00
2023-09-13T07:49:59.218Z,1.25
2023-09-13T07:52:28.255Z,1.73
2023-09-13T07:54:58.996Z,1.15
2023-09-13T07:57:27.163Z,1.35
2023-09-13T07:59:53.832Z,0.63
2023-09-13T08:02:22.022Z,0.57
2023-09-13T08:04:51.108Z,0.82
2023-09-13T08:07:17.945Z,0.77
2023-09-13T08:09:44.692Z,0.73
2023-09-13T08:12:11.435Z,0.73
2023-09-13T08:14:39.612Z,0.77
2023-09-13T08:17:06.467Z,0.88
2023-09-13T08:19:33.278Z,1.10
2023-09-13T08:21:59.989Z,2.65
2023-09-13T08:24:26.785Z,1.08
2023-09-13T08:26:53.592Z,2.10
2023-09-13T08:29:20.324Z,2.05
2023-09-13T08:31:48.499Z,0.88
2023-09-13T08:34:15.333Z,0.98
2023-09-13T08:36:42.143Z,0.93
2023-09-13T08:39:09.007Z,0.88
2023-09-13T08:41:36.036Z,0.63
2023-09-13T08:44:04.977Z,0.75
2023-09-13T08:46:33.065Z,0.98
2023-09-13T08:49:03.688Z,0.73
2023-09-13T08:51:30.952Z,2.38
2023-09-13T08:53:57.811Z,0.65
2023-09-13T08:56:25.041Z,1.63
2023-09-13T08:58:52.831Z,2.65
2023-09-13T09:01:24.195Z,1.15
2023-09-13T09:03:51.414Z,1.73
2023-09-13T09:06:21.358Z,2.90
2023-09-13T09:08:50.691Z,0.70
2023-09-13T09:11:22.586Z,0.95
2023-09-13T09:13:49.870Z,1.55
2023-09-13T09:16:18.364Z,1.77
2023-09-13T09:18:47.300Z,1.27
2023-09-13T09:21:14.835Z,2.63
2023-09-13T09:23:43.428Z,1.45
2023-09-13T09:26:10.693Z,0.90
2023-09-13T09:28:37.490Z,1.42
2023-09-13T09:31:05.175Z,1.38
2023-09-13T09:33:33.222Z,2.45
2023-09-13T09:36:01.474Z,0.98
2023-09-13T09:38:30.794Z,1.10
2023-09-13T09:41:01.620Z,2.00
2023-09-13T09:43:28.419Z,1.33
2023-09-13T09:45:55.692Z,1.52
2023-09-13T09:48:22.596Z,1.42
2023-09-13T09:50:52.411Z,1.10
2023-09-13T09:53:20.918Z,1.88
2023-09-13T09:55:47.932Z,1.48
2023-09-13T09:58:17.016Z,1.13
2023-09-13T10:00:47.970Z,1.00
2023-09-13T10:03:19.200Z,1.05
2023-09-13T10:05:57.343Z,0.93
2023-09-13T10:08:43.697Z,0.52
2023-09-13T10:11:14.613Z,0.75
2023-09-13T10:13:47.068Z,0.85
2023-09-13T10:16:15.646Z,2.20
2023-09-13T10:18:45.974Z,1.48
2023-09-13T10:21:15.271Z,0.77
2023-09-13T10:23:43.215Z,1.33
2023-09-13T10:26:11.345Z,1.52
2023-09-13T10:28:41.156Z,1.83
2023-09-13T10:31:19.645Z,1.98
2023-09-13T10:33:52.520Z,1.48
2023-09-13T10:36:32.382Z,1.67
2023-09-13T10:39:10.280Z,2.60
2023-09-13T10:41:47.907Z,1.20
2023-09-13T10:44:16.169Z,1.20
2023-09-13T10:46:44.533Z,1.38
2023-09-13T10:49:12.216Z,1.95
2023-09-13T10:51:41.393Z,2.28
2023-09-13T10:54:09.850Z,2.33
2023-09-13T10:56:36.834Z,1.23
2023-09-13T10:59:06.486Z,1.45
2023-09-13T11:01:35.371Z,3.22
2023-09-13T11:04:06.155Z,3.17
2023-09-13T11:06:34.457Z,2.20
2023-09-13T11:09:12.224Z,4.25
2023-09-13T11:11:38.979Z,3.33
2023-09-13T11:14:11.284Z,2.42
2023-09-13T11:16:41.160Z,2.55
2023-09-13T11:19:11.265Z,1.75
2023-09-13T11:21:48.539Z,1.83
2023-09-13T11:27:10.968Z,1.83
2023-09-13T11:29:42.494Z,1.75
2023-09-13T11:32:17.675Z,2.03
2023-09-13T11:34:46.864Z,1.55
2023-09-13T11:37:15.089Z,1.42
2023-09-13T11:39:43.050Z,2.25
2023-09-13T11:42:17.981Z,2.38
2023-09-13T11:45:03.300Z,2.50
2023-09-13T11:47:35.016Z,1.33
2023-09-13T11:53:11.204Z,2.50
2023-09-13T11:56:03.017Z,1.42
2023-09-13T11:58:39.743Z,2.03
2023-09-13T12:01:15.932Z,1.58
2023-09-13T12:04:13.277Z,2.45
2023-09-13T12:09:17.937Z,1.60
2023-09-13T12:11:49.123Z,1.52
2023-09-13T12:14:31.036Z,1.83
2023-09-13T12:17:06.760Z,1.70
2023-09-13T12:19:37.420Z,1.92
2023-09-13T12:22:05.885Z,1.55
2023-09-13T12:24:33.019Z,1.58
2023-09-13T12:26:59.861Z,1.75
2023-09-13T12:29:26.691Z,1.55
2023-09-13T12:31:58.715Z,1.70
2023-09-13T12:34:26.070Z,3.60
2023-09-13T12:36:55.310Z,2.55
2023-09-13T12:39:23.366Z,2.45
2023-09-13T12:41:50.242Z,1.95
2023-09-13T12:44:19.526Z,2.08
2023-09-13T12:46:46.702Z,5.70
2023-09-13T12:49:13.528Z,2.55
2023-09-13T12:51:41.649Z,2.95
2023-09-13T12:54:14.568Z,3.47
2023-09-13T12:56:42.983Z,1.70
2023-09-13T12:59:10.233Z,3.08
2023-09-13T13:01:37.280Z,2.75
2023-09-13T13:04:08.374Z,4.15
2023-09-13T13:06:54.142Z,2.80
2023-09-13T13:09:25.410Z,1.80
2023-09-13T13:11:54.146Z,4.65
2023-09-13T13:14:24.976Z,2.08
2023-09-13T13:16:56.372Z,2.47
2023-09-13T13:19:47.821Z,1.33
2023-09-13T13:22:18.807Z,2.40
2023-09-13T13:24:46.560Z,1.17
2023-09-13T13:27:14.706Z,2.95
2023-09-13T13:29:41.450Z,3.20
2023-09-13T13:32:08.938Z,3.10
2023-09-13T13:34:36.063Z,2.63
2023-09-13T13:37:03.013Z,1.35
2023-09-13T13:39:29.794Z,1.85
2023-09-13T13:41:56.685Z,2.08
2023-09-13T13:44:24.871Z,1.40
2023-09-13T13:46:51.608Z,2.25
2023-09-13T13:49:19.597Z,1.30
2023-09-13T13:51:47.722Z,1.52
2023-09-13T13:54:15.629Z,1.67
2023-09-13T13:56:44.123Z,1.42
2023-09-13T13:59:12.122Z,1.25
2023-09-13T14:01:40.707Z,1.65
2023-09-13T14:04:07.740Z,1.55
2023-09-13T14:06:34.642Z,1.45
2023-09-13T14:09:07.436Z,1.35
2023-09-13T14:11:34.865Z,1.88
2023-09-13T14:14:01.762Z,3.83
2023-09-13T14:16:28.676Z,2.25
2023-09-13T14:18:56.893Z,1.17
2023-09-13T14:21:23.729Z,0.95
2023-09-13T14:23:50.507Z,0.90
2023-09-13T14:26:17.303Z,2.20
2023-09-13T14:28:44.094Z,1.58
2023-09-13T14:31:14.332Z,1.60
2023-09-13T14:33:43.849Z,1.23
2023-09-13T14:36:12.871Z,1.40
2023-09-13T14:38:40.157Z,1.30
2023-09-13T14:41:08.066Z,1.80
2023-09-13T14:43:34.820Z,2.05
2023-09-13T14:46:01.658Z,2.22
2023-09-13T14:48:28.814Z,1.38
2023-09-13T14:50:55.664Z,2.45
2023-09-13T14:53:23.929Z,1.83
2023-09-13T14:55:56.461Z,1.27
2023-09-13T14:58:23.690Z,1.55
2023-09-13T15:00:50.681Z,2.15
2023-09-13T15:03:17.495Z,1.63
2023-09-13T15:05:44.368Z,1.17
2023-09-13T15:08:11.485Z,2.83
2023-09-13T15:10:39.700Z,0.98
2023-09-13T15:13:07.356Z,1.60
2023-09-13T15:15:34.222Z,2.28
2023-09-13T15:18:01.479Z,1.52
2023-09-13T15:20:29.038Z,1.33
2023-09-13T15:22:55.922Z,2.47
2023-09-13T15:25:22.781Z,1.23
2023-09-13T15:27:51.166Z,1.63
2023-09-13T15:30:18.093Z,1.30
2023-09-13T15:32:46.001Z,1.65
2023-09-13T15:35:13.038Z,0.88
2023-09-13T15:37:39.870Z,2.67
2023-09-13T15:40:12.808Z,1.52
2023-09-13T15:42:40.694Z,2.10
2023-09-13T15:45:11.437Z,1.42
2023-09-13T15:47:38.851Z,2.35
2023-09-13T15:50:06.310Z,1.20
2023-09-13T15:52:33.155Z,2.17
2023-09-13T15:55:00.216Z,3.30
2023-09-13T15:57:27.246Z,1.40
2023-09-13T15:59:54.423Z,2.20
2023-09-13T16:02:25.942Z,2.45
2023-09-13T16:04:52.799Z,1.27
2023-09-13T16:07:19.935Z,2.53
2023-09-13T16:09:46.730Z,1.85
2023-09-13T16:12:13.664Z,1.95
2023-09-13T16:14:40.821Z,3.20
2023-09-13T16:17:08.320Z,1.80
2023-09-13T16:19:36.389Z,2.13
2023-09-13T16:22:05.265Z,2.03
2023-09-13T16:24:32.368Z,1.52
2023-09-13T16:26:59.209Z,1.48
2023-09-13T16:29:26.507Z,2.72
2023-09-13T16:31:53.388Z,2.28
2023-09-13T16:34:20.101Z,2.28
2023-09-13T16:36:48.359Z,2.45
2023-09-13T16:39:17.252Z,4.88
2023-09-13T16:41:44.453Z,1.60
2023-09-13T16:44:11.207Z,2.67
2023-09-13T16:46:38.278Z,3.88
2023-09-13T16:49:05.396Z,2.67
2023-09-13T16:51:32.285Z,2.30
2023-09-13T16:54:00.630Z,1.85
2023-09-13T16:56:27.503Z,3.75
2023-09-13T16:58:55.942Z,1.92
2023-09-13T17:01:22.760Z,3.75
2023-09-13T17:03:50.215Z,2.95
2023-09-13T17:06:17.462Z,2.33
2023-09-13T17:08:44.756Z,2.28
2023-09-13T17:11:14.502Z,2.38
2023-09-13T17:13:42.193Z,2.72
2023-09-13T17:16:10.085Z,2.78
2023-09-13T17:18:37.095Z,3.03
2023-09-13T17:21:05.012Z,3.08
2023-09-13T17:23:31.976Z,2.38
2023-09-13T17:25:59.167Z,2.75
2023-09-13T17:28:27.357Z,2.88
2023-09-13T17:30:54.359Z,3.45
2023-09-13T17:33:21.250Z,3.08
2023-09-13T17:35:49.097Z,2.90
2023-09-13T17:38:18.034Z,2.97
2023-09-13T17:40:45.358Z,3.85
2023-09-13T17:43:12.207Z,3.00
2023-09-13T17:45:40.719Z,2.83
2023-09-13T17:48:07.835Z,2.95
2023-09-13T17:50:35.054Z,2.58
2023-09-13T17:53:07.568Z,3.47
2023-09-13T17:55:35.607Z,2.60
2023-09-13T17:58:02.517Z,3.53
2023-09-13T18:00:29.665Z,2.70
2023-09-13T18:02:58.246Z,2.20
2023-09-13T18:05:25.231Z,2.80
2023-09-13T18:07:56.349Z,2.63
2023-09-13T18:10:23.375Z,1.95
2023-09-13T18:12:50.163Z,1.90
2023-09-13T18:15:17.199Z,3.22
2023-09-13T18:17:53.726Z,4.07
2023-09-13T18:20:23.373Z,2.60
2023-09-13T18:22:50.294Z,2.08
2023-09-13T18:25:17.391Z,2.65
2023-09-13T18:27:44.411Z,2.00
2023-09-13T18:30:12.217Z,4.32
2023-09-13T18:32:39.121Z,2.45
2023-09-13T18:35:07.060Z,1.92
2023-09-13T18:37:36.207Z,4.05
2023-09-13T18:40:04.838Z,2.35
2023-09-13T18:42:35.896Z,2.40
2023-09-13T18:45:03.903Z,2.78
2023-09-13T18:47:30.765Z,3.83
2023-09-13T18:49:57.831Z,3.25
2023-09-13T18:52:24.600Z,3.95
2023-09-13T18:54:52.793Z,2.08
2023-09-13T18:57:19.894Z,3.53
2023-09-13T18:59:47.080Z,4.22
2023-09-13T19:02:13.873Z,3.75
2023-09-13T19:04:41.061Z,2.08
2023-09-13T19:07:10.794Z,4.25
2023-09-13T19:09:39.729Z,3.28
2023-09-13T19:12:09.927Z,3.40
2023-09-13T19:14:36.673Z,2.38
2023-09-13T19:17:04.088Z,3.08
2023-09-13T19:19:32.922Z,2.35
2023-09-13T19:21:59.671Z,1.88
2023-09-13T19:24:26.440Z,2.97
2023-09-13T19:26:53.163Z,4.25
2023-09-13T19:29:21.472Z,3.03
2023-09-13T19:31:48.170Z,2.55
2023-09-13T19:34:15.056Z,2.92
2023-09-13T19:36:42.226Z,4.40
2023-09-13T19:39:09.217Z,3.60
2023-09-13T19:41:36.232Z,5.20
2023-09-13T19:44:03.052Z,5.28
2023-09-13T19:46:31.239Z,3.38
2023-09-13T19:48:58.029Z,3.40
2023-09-13T19:51:24.857Z,5.40
2023-09-13T19:53:54.674Z,4.00
2023-09-13T19:56:22.089Z,2.13
2023-09-13T19:58:50.277Z,1.67
2023-09-13T20:01:18.259Z,2.53
2023-09-13T20:03:47.519Z,4.32
2023-09-13T20:06:16.380Z,2.50
2023-09-13T20:08:43.804Z,5.00
2023-09-13T20:11:10.919Z,3.25
2023-09-13T20:13:40.482Z,1.83
2023-09-13T20:16:07.768Z,3.50
2023-09-13T20:18:34.478Z,4.20
2023-09-13T20:21:02.838Z,2.13
2023-09-13T20:23:30.366Z,3.05
2023-09-13T20:25:58.043Z,3.58
2023-09-13T20:28:27.350Z,3.28
2023-09-13T20:30:55.474Z,3.50
2023-09-13T20:33:22.691Z,3.05
2023-09-13T20:35:50.323Z,4.57
2023-09-13T20:38:19.165Z,2.53
2023-09-13T20:40:46.086Z,3.30
2023-09-13T20:43:13.236Z,2.38
2023-09-13T20:45:40.555Z,4.28
2023-09-13T20:48:08.387Z,3.28
2023-09-13T20:50:35.473Z,6.55
2023-09-13T20:53:02.510Z,4.25
2023-09-13T20:55:31.254Z,4.10
2023-09-13T20:58:00.246Z,3.83
2023-09-13T21:00:27.265Z,3.42
2023-09-13T21:02:54.200Z,1.98
2023-09-13T21:05:20.902Z,5.68
2023-09-13T21:07:47.660Z,2.80
2023-09-13T21:10:15.518Z,2.58
2023-09-13T21:12:43.932Z,2.95
2023-09-13T21:15:11.525Z,2.95
2023-09-13T21:17:38.592Z,3.45
2023-09-13T21:20:06.879Z,1.98
2023-09-13T21:22:33.708Z,2.75
2023-09-13T21:25:02.014Z,1.83
2023-09-13T21:27:28.963Z,4.35
2023-09-13T21:29:57.207Z,4.22
2023-09-13T21:32:23.907Z,3.42
2023-09-13T21:35:01.875Z,3.33
2023-09-13T21:37:32.182Z,3.60
2023-09-13T21:40:01.281Z,3.22
2023-09-13T21:42:28.083Z,2.90
2023-09-13T21:44:57.311Z,4.78
2023-09-13T21:47:24.081Z,5.07
2023-09-13T21:49:51.021Z,3.15
2023-09-13T21:52:18.041Z,2.42
2023-09-13T21:54:47.855Z,2.55
2023-09-13T21:57:15.279Z,4.18
2023-09-13T21:59:42.109Z,3.55
2023-09-13T22:02:10.709Z,2.38
2023-09-13T22:04:37.487Z,3.53
2023-09-13T22:07:04.483Z,1.65
2023-09-13T22:09:31.622Z,3.95
2023-09-13T22:11:58.671Z,3.83
2023-09-13T22:14:25.380Z,2.70
2023-09-13T22:16:52.097Z,3.65
2023-09-13T22:19:20.250Z,2.83
2023-09-13T22:21:47.021Z,4.13
2023-09-13T22:24:14.040Z,2.90
2023-09-13T22:26:40.967Z,3.25
2023-09-13T22:29:07.787Z,4.03
2023-09-13T22:31:34.601Z,2.35
2023-09-13T22:34:01.615Z,3.55
2023-09-13T22:36:29.772Z,4.35
2023-09-13T22:39:06.551Z,2.53
2023-09-13T22:41:37.883Z,2.65
2023-09-13T22:44:05.985Z,4.07
2023-09-13T22:46:33.097Z,4.43
2023-09-13T22:49:00.190Z,2.92
2023-09-13T22:51:27.243Z,3.38
2023-09-13T22:53:57.332Z,4.07
2023-09-13T22:56:24.441Z,3.47
2023-09-13T22:58:51.402Z,3.97
2023-09-13T23:01:18.253Z,2.90
2023-09-13T23:03:47.017Z,3.72
2023-09-13T23:06:14.039Z,4.40
2023-09-13T23:08:40.944Z,3.38
2023-09-13T23:11:09.278Z,4.05
2023-09-13T23:13:36.137Z,4.32
2023-09-13T23:16:05.410Z,3.60
2023-09-13T23:18:33.496Z,2.63
2023-09-13T23:21:00.980Z,4.13
2023-09-13T23:23:28.115Z,3.25
2023-09-13T23:25:59.397Z,4.30
2023-09-13T23:28:27.681Z,6.78
2023-09-13T23:31:02.720Z,2.60
2023-09-13T23:33:29.830Z,2.25
2023-09-13T23:35:56.567Z,3.00
2023-09-13T23:38:23.345Z,4.22
2023-09-13T23:40:50.074Z,3.65
2023-09-13T23:43:16.827Z,2.72
2023-09-13T23:45:46.432Z,3.47
2023-09-13T23:48:13.665Z,3.13
2023-09-13T23:50:40.609Z,3.55
2023-09-13T23:53:07.351Z,5.13
2023-09-13T23:55:34.080Z,1.77
2023-09-13T23:58:00.828Z,4.63
